Aviation Digital Data Service (ADDS)

Output produced by METARs form (0306 UTC 28 February 2017)
found at http://aviationweather.gov/adds/metars/
 
KCAK 280223Z 2802/2824 16006KT P6SM OVC012 
     TEMPO 2802/2805 OVC009 
     FM280600 16006KT P6SM BKN150 
     FM281300 16008KT 5SM -SHRA OVC050 
     FM281500 18010KT 5SM -SHRA BR OVC020 
     FM281900 18012G20KT P6SM VCSH OVC015